Archival Weather

NSFA McMurdo Sound

NSFA McMurdo Sound, Antarctica (NZCM)

Report from: Friday, September 23, 2022 1:55 AM UTC
Current time: Sunday, December 4, 2022 12:01 PM UTC

Current weather
Weather history
Weather forecast

Temperature-21.5°C (-6.7°F)
Dew point-27.8°C (-18.0°F)
Winds Calm
Visibility6.2 mi. (10 km)
Clouds Ceiling: Broken clouds 3,700 ft. (1,128 m)
Overcast 4,900 ft. (1,494 m)
Altimeter28.67 in.Hg (971 mB)
Relative humidity57 %
Density altitude-3,176 ft. (-968 m)
Sea-level pressure107.2 kPa (1072 mB, 31.64 in.Hg)
Remarks Fully automated report
System requires maintenance
Automated weather observing station with precipitation discriminator
Flight conditions Visual Meteorological Conditions
Raw dataNZCM 230155Z AUTO 00000KT 9999 BKN037 OVC049 M21/M28 A2867 RMK AO2 SLP716 T12151278 $
An error has occurred. This application may no longer respond until reloaded. Reload 🗙